createdAt,value
2022-10-13T00:00:42.542Z,99.90
2022-10-13T00:03:10.892Z,99.90
2022-10-13T00:05:42.914Z,99.90
2022-10-13T00:08:13.741Z,99.90
2022-10-13T00:10:47.915Z,99.90
2022-10-13T00:13:18.259Z,99.90
2022-10-13T00:15:48.469Z,99.90
2022-10-13T00:18:17.356Z,99.90
2022-10-13T00:20:47.886Z,99.90
2022-10-13T00:23:16.141Z,99.90
2022-10-13T00:25:44.896Z,99.90
2022-10-13T00:28:13.468Z,99.90
2022-10-13T00:30:43.445Z,99.90
2022-10-13T00:33:13.422Z,99.90
2022-10-13T00:35:43.912Z,99.90
2022-10-13T00:38:12.768Z,99.90
2022-10-13T00:40:48.135Z,99.90
2022-10-13T00:43:20.179Z,99.90
2022-10-13T00:45:50.910Z,99.90
2022-10-13T00:48:26.555Z,99.90
2022-10-13T00:50:55.138Z,99.90
2022-10-13T00:53:26.685Z,99.90
2022-10-13T00:55:55.950Z,99.90
2022-10-13T00:58:31.212Z,99.90
2022-10-13T01:01:00.805Z,99.90
2022-10-13T01:03:29.051Z,99.90
2022-10-13T01:06:01.163Z,99.90
2022-10-13T01:08:30.591Z,99.90
2022-10-13T01:11:08.878Z,99.90
2022-10-13T01:13:43.732Z,99.90
2022-10-13T01:16:18.157Z,99.90
2022-10-13T01:18:55.852Z,99.90
2022-10-13T01:21:29.334Z,99.90
2022-10-13T01:24:31.601Z,99.90
2022-10-13T01:27:14.452Z,99.90
2022-10-13T01:30:03.719Z,99.90
2022-10-13T01:32:52.442Z,99.90
2022-10-13T01:35:25.981Z,99.90
2022-10-13T01:38:00.672Z,99.90
2022-10-13T01:40:35.715Z,99.90
2022-10-13T01:43:09.102Z,99.90
2022-10-13T01:45:42.124Z,99.90
2022-10-13T01:48:14.160Z,99.90
2022-10-13T01:50:47.824Z,99.90
2022-10-13T01:53:18.191Z,99.90
2022-10-13T01:55:54.914Z,99.90
2022-10-13T01:58:24.629Z,99.90
2022-10-13T02:01:22.992Z,99.90
2022-10-13T02:03:59.833Z,99.90
2022-10-13T02:06:33.143Z,99.90
2022-10-13T02:09:05.801Z,99.90
2022-10-13T02:11:33.840Z,99.90
2022-10-13T02:14:08.648Z,99.90
2022-10-13T02:16:40.540Z,99.90
2022-10-13T02:19:13.754Z,99.90
2022-10-13T02:21:42.462Z,99.90
2022-10-13T02:24:13.663Z,99.90
2022-10-13T02:26:42.685Z,99.90
2022-10-13T02:29:14.280Z,99.90
2022-10-13T02:31:44.435Z,99.90
2022-10-13T02:34:12.958Z,99.90
2022-10-13T02:36:41.451Z,99.90
2022-10-13T02:39:11.989Z,99.90
2022-10-13T02:41:40.375Z,99.90
2022-10-13T02:44:08.625Z,99.90
2022-10-13T02:46:43.278Z,99.90
2022-10-13T02:49:13.550Z,99.90
2022-10-13T02:51:41.632Z,99.90
2022-10-13T02:54:09.803Z,99.90
2022-10-13T02:56:37.976Z,99.90
2022-10-13T02:59:06.237Z,99.90
2022-10-13T03:01:35.781Z,99.90
2022-10-13T03:04:05.271Z,99.90
2022-10-13T03:06:35.675Z,99.90
2022-10-13T03:09:06.869Z,99.90
2022-10-13T03:11:35.168Z,99.90
2022-10-13T03:14:03.206Z,99.90
2022-10-13T03:16:33.700Z,99.90
2022-10-13T03:19:01.805Z,99.90
2022-10-13T03:21:31.471Z,99.90
2022-10-13T03:23:59.507Z,99.90
2022-10-13T03:26:27.587Z,99.90
2022-10-13T03:28:55.793Z,99.90
2022-10-13T03:31:23.923Z,99.90
2022-10-13T03:33:52.335Z,99.90
2022-10-13T03:36:20.481Z,99.90
2022-10-13T03:38:51.917Z,99.90
2022-10-13T03:41:20.176Z,99.90
2022-10-13T03:43:51.254Z,99.90
2022-10-13T03:46:19.865Z,99.90
2022-10-13T03:48:50.319Z,99.90
2022-10-13T03:51:20.619Z,99.90
2022-10-13T03:53:53.828Z,99.90
2022-10-13T03:56:25.006Z,99.90
2022-10-13T03:58:55.385Z,99.90
2022-10-13T04:01:24.447Z,99.90
2022-10-13T04:03:55.569Z,99.90
2022-10-13T04:06:24.521Z,99.90
2022-10-13T04:08:54.486Z,99.90
2022-10-13T04:11:23.581Z,99.90
2022-10-13T04:13:57.542Z,99.90
2022-10-13T04:16:28.958Z,99.90
2022-10-13T04:19:00.259Z,99.90
2022-10-13T04:21:30.080Z,99.90
2022-10-13T04:24:02.681Z,99.90
2022-10-13T04:26:33.589Z,99.90
2022-10-13T04:29:09.386Z,99.90
2022-10-13T04:31:38.210Z,99.90
2022-10-13T04:34:07.713Z,99.90
2022-10-13T04:36:37.002Z,99.90
2022-10-13T04:39:06.659Z,99.90
2022-10-13T04:41:34.738Z,99.90
2022-10-13T04:44:03.004Z,99.90
2022-10-13T04:46:31.476Z,99.90
2022-10-13T04:48:59.515Z,99.90
2022-10-13T04:51:33.325Z,99.90
2022-10-13T04:54:05.537Z,99.90
2022-10-13T04:56:35.273Z,99.90
2022-10-13T04:59:05.773Z,99.90
2022-10-13T05:01:38.498Z,99.90
2022-10-13T05:04:11.610Z,99.90
2022-10-13T05:07:05.269Z,99.90
2022-10-13T05:09:33.045Z,99.90
2022-10-13T05:12:10.184Z,99.90
2022-10-13T05:14:38.275Z,99.60
2022-10-13T05:17:08.833Z,98.60
2022-10-13T05:19:42.265Z,98.50
2022-10-13T05:22:10.401Z,98.00
2022-10-13T05:24:42.780Z,97.80
2022-10-13T05:27:14.970Z,96.90
2022-10-13T05:29:46.455Z,97.00
2022-10-13T05:32:17.877Z,96.80
2022-10-13T05:34:48.577Z,96.20
2022-10-13T05:37:18.346Z,95.70
2022-10-13T05:39:48.797Z,95.40
2022-10-13T05:42:18.971Z,95.10
2022-10-13T05:44:47.520Z,95.00
2022-10-13T05:47:15.630Z,95.00
2022-10-13T05:49:46.411Z,94.80
2022-10-13T05:52:14.535Z,94.30
2022-10-13T05:54:46.141Z,94.10
2022-10-13T05:57:18.370Z,93.90
2022-10-13T05:59:53.038Z,94.10
2022-10-13T06:02:23.180Z,93.30
2022-10-13T06:04:55.626Z,93.20
2022-10-13T06:07:24.450Z,92.90
2022-10-13T06:09:52.697Z,92.90
2022-10-13T06:12:21.226Z,92.70
2022-10-13T06:14:51.107Z,92.80
2022-10-13T06:17:19.485Z,92.40
2022-10-13T06:19:48.572Z,92.30
2022-10-13T06:22:17.486Z,92.30
2022-10-13T06:24:46.158Z,91.90
2022-10-13T06:27:14.310Z,91.40
2022-10-13T06:29:42.613Z,91.70
2022-10-13T06:32:12.090Z,91.80
2022-10-13T06:34:40.323Z,91.20
2022-10-13T06:37:11.129Z,90.90
2022-10-13T06:39:39.218Z,91.20
2022-10-13T06:42:07.646Z,90.70
2022-10-13T06:44:39.520Z,90.30
2022-10-13T06:47:08.144Z,90.00
2022-10-13T06:49:37.750Z,89.80
2022-10-13T06:52:06.393Z,89.70
2022-10-13T06:54:37.264Z,89.50
2022-10-13T06:57:07.889Z,89.60
2022-10-13T06:59:36.173Z,88.80
2022-10-13T07:02:04.533Z,89.20
2022-10-13T07:04:33.021Z,88.90
2022-10-13T07:07:02.914Z,88.90
2022-10-13T07:09:32.228Z,88.70
2022-10-13T07:12:00.803Z,88.00
2022-10-13T07:14:29.103Z,87.80
2022-10-13T07:16:57.246Z,88.30
2022-10-13T07:19:25.434Z,87.70
2022-10-13T07:21:54.046Z,87.50
2022-10-13T07:24:27.140Z,87.40
2022-10-13T07:26:55.371Z,86.90
2022-10-13T07:29:23.680Z,86.80
2022-10-13T07:31:52.127Z,86.20
2022-10-13T07:34:22.629Z,86.10
2022-10-13T07:36:50.702Z,85.50
2022-10-13T07:39:18.779Z,85.00
2022-10-13T07:41:51.106Z,84.70
2022-10-13T07:44:19.740Z,84.90
2022-10-13T07:46:47.859Z,85.10
2022-10-13T07:49:16.487Z,84.30
2022-10-13T07:51:44.742Z,85.00
2022-10-13T07:54:13.138Z,84.40
2022-10-13T07:56:41.256Z,84.70
2022-10-13T07:59:13.193Z,84.90
2022-10-13T08:01:42.034Z,85.20
2022-10-13T08:04:10.235Z,85.10
2022-10-13T08:06:41.855Z,84.80
2022-10-13T08:09:10.569Z,84.50
2022-10-13T08:11:39.181Z,84.50
2022-10-13T08:14:07.276Z,83.40
2022-10-13T08:16:38.157Z,83.50
2022-10-13T08:19:06.447Z,83.40
2022-10-13T08:21:57.471Z,83.60
2022-10-13T08:24:25.515Z,83.30
2022-10-13T08:26:53.855Z,83.50
2022-10-13T08:29:23.793Z,83.10
2022-10-13T08:31:54.415Z,83.30
2022-10-13T08:34:23.355Z,82.40
2022-10-13T08:36:53.562Z,82.50
2022-10-13T08:39:22.817Z,82.80
2022-10-13T08:41:51.720Z,82.50
2022-10-13T08:45:10.770Z,82.60
2022-10-13T08:47:21.263Z,82.50
2022-10-13T08:49:49.748Z,82.10
2022-10-13T08:52:21.384Z,82.20
2022-10-13T08:54:50.776Z,82.20
2022-10-13T08:57:19.578Z,82.20
2022-10-13T08:59:49.668Z,81.70
2022-10-13T09:02:31.214Z,82.10
2022-10-13T09:05:03.745Z,82.30
2022-10-13T09:07:36.064Z,81.40
2022-10-13T09:10:05.172Z,80.90
2022-10-13T09:12:33.979Z,80.90
2022-10-13T09:15:05.299Z,80.60
2022-10-13T09:17:35.948Z,80.90
2022-10-13T09:20:07.699Z,80.90
2022-10-13T09:22:37.778Z,81.00
2022-10-13T09:25:19.918Z,80.80
2022-10-13T09:27:50.475Z,80.90
2022-10-13T09:30:34.733Z,80.80
2022-10-13T09:33:22.242Z,80.40
2022-10-13T09:36:07.498Z,80.30
2022-10-13T09:38:36.439Z,80.30
2022-10-13T09:41:07.129Z,80.10
2022-10-13T09:43:43.043Z,80.70
2022-10-13T09:46:22.166Z,79.70
2022-10-13T09:48:54.638Z,79.50
2022-10-13T09:51:34.863Z,79.30
2022-10-13T09:54:28.110Z,78.90
2022-10-13T09:57:02.398Z,78.30
2022-10-13T09:59:35.410Z,77.90
2022-10-13T10:02:19.404Z,77.90
2022-10-13T10:04:52.405Z,77.90
2022-10-13T10:07:23.404Z,77.50
2022-10-13T10:09:55.368Z,77.30
2022-10-13T10:12:28.162Z,78.00
2022-10-13T10:14:56.567Z,77.10
2022-10-13T10:17:30.484Z,77.90
2022-10-13T10:20:11.149Z,77.30
2022-10-13T10:22:49.355Z,77.30
2022-10-13T10:25:33.206Z,78.50
2022-10-13T10:28:27.492Z,78.70
2022-10-13T10:31:02.843Z,79.10
2022-10-13T10:33:45.192Z,79.50
2022-10-13T10:36:19.870Z,79.90
2022-10-13T10:38:52.841Z,80.60
2022-10-13T10:41:38.764Z,80.00
2022-10-13T10:44:11.930Z,79.20
2022-10-13T10:46:43.435Z,78.50
2022-10-13T10:49:17.832Z,79.10
2022-10-13T10:51:49.080Z,78.20
2022-10-13T10:54:43.950Z,77.50
2022-10-13T10:57:20.680Z,76.80
2022-10-13T11:00:02.120Z,76.20
2022-10-13T11:02:49.736Z,75.80
2022-10-13T11:05:18.433Z,76.00
2022-10-13T11:07:59.940Z,73.90
2022-10-13T11:10:29.020Z,73.20
2022-10-13T11:13:27.306Z,73.10
2022-10-13T11:15:55.666Z,70.90
2022-10-13T11:18:56.424Z,70.60
2022-10-13T11:22:22.627Z,69.20
2022-10-13T11:25:04.043Z,68.80
2022-10-13T11:27:44.557Z,68.70
2022-10-13T11:30:44.820Z,68.00
2022-10-13T11:33:49.652Z,68.70
2022-10-13T11:36:46.193Z,69.10
2022-10-13T11:39:51.072Z,68.50
2022-10-13T11:42:48.155Z,68.00
2022-10-13T11:45:43.027Z,67.50
2022-10-13T11:48:45.334Z,67.60
2022-10-13T11:51:33.105Z,67.80
2022-10-13T11:54:14.752Z,67.50
2022-10-13T11:56:48.876Z,66.90
2022-10-13T11:59:23.162Z,67.30
2022-10-13T12:01:56.841Z,67.50
2022-10-13T12:04:27.169Z,67.30
2022-10-13T12:07:01.792Z,66.90
2022-10-13T12:09:32.504Z,67.70
2022-10-13T12:12:04.215Z,68.40
2022-10-13T12:17:23.826Z,68.50
2022-10-13T12:19:54.266Z,69.30
2022-10-13T12:22:23.086Z,69.50
2022-10-13T12:25:03.162Z,69.30
2022-10-13T12:27:33.567Z,69.90
2022-10-13T12:30:04.381Z,69.00
2022-10-13T12:32:35.929Z,69.30
2022-10-13T12:35:19.414Z,69.70
2022-10-13T12:37:48.094Z,69.60
2022-10-13T12:40:17.683Z,69.50
2022-10-13T12:42:46.660Z,70.20
2022-10-13T12:45:17.306Z,69.20
2022-10-13T12:47:51.836Z,68.70
2022-10-13T12:50:38.147Z,68.50
2022-10-13T12:53:30.184Z,68.50
2022-10-13T12:56:00.729Z,69.10
2022-10-13T12:58:32.018Z,68.70
2022-10-13T13:01:21.646Z,68.40
2022-10-13T13:03:56.312Z,69.60
2022-10-13T13:06:37.501Z,69.80
2022-10-13T13:09:30.779Z,69.50
2022-10-13T13:12:22.717Z,69.80
2022-10-13T13:14:54.709Z,70.30
2022-10-13T13:17:45.795Z,69.70
2022-10-13T13:20:28.611Z,70.20
2022-10-13T13:22:57.119Z,70.00
2022-10-13T13:25:25.654Z,69.80
2022-10-13T13:27:54.303Z,69.20
2022-10-13T13:30:24.742Z,70.00
2022-10-13T13:32:53.071Z,69.80
2022-10-13T13:35:23.594Z,70.10
2022-10-13T13:37:53.148Z,70.60
2022-10-13T13:40:23.202Z,70.70
2022-10-13T13:42:51.397Z,70.60
2022-10-13T13:45:22.127Z,70.80
2022-10-13T13:47:51.541Z,71.10
2022-10-13T13:50:23.862Z,71.20
2022-10-13T13:52:58.676Z,70.70
2022-10-13T13:55:26.993Z,70.50
2022-10-13T13:57:55.161Z,70.40
2022-10-13T14:00:24.941Z,70.60
2022-10-13T14:02:56.775Z,70.60
2022-10-13T14:05:26.599Z,70.30
2022-10-13T14:07:57.624Z,70.10
2022-10-13T14:10:27.167Z,70.50
2022-10-13T14:12:55.221Z,70.60
2022-10-13T14:15:27.203Z,70.30
2022-10-13T14:17:57.725Z,70.60
2022-10-13T14:20:27.341Z,70.40
2022-10-13T14:22:55.490Z,71.00
2022-10-13T14:25:23.810Z,71.70
2022-10-13T14:27:52.187Z,71.70
2022-10-13T14:30:21.143Z,71.90
2022-10-13T14:32:49.345Z,71.70
2022-10-13T14:35:17.573Z,71.60
2022-10-13T14:37:47.011Z,71.80
2022-10-13T14:40:15.291Z,71.20
2022-10-13T14:42:43.549Z,71.00
2022-10-13T14:45:16.801Z,71.20
2022-10-13T14:47:46.972Z,70.80
2022-10-13T14:50:15.094Z,70.60
2022-10-13T14:52:44.222Z,71.30
2022-10-13T14:55:13.929Z,70.40
2022-10-13T14:57:44.590Z,70.30
2022-10-13T15:00:13.924Z,70.00
2022-10-13T15:02:42.474Z,70.40
2022-10-13T15:05:11.038Z,71.10
2022-10-13T15:07:42.229Z,70.70
2022-10-13T15:10:10.649Z,70.50
2022-10-13T15:12:40.119Z,70.60
2022-10-13T15:15:09.048Z,70.50
2022-10-13T15:17:38.007Z,70.70
2022-10-13T15:20:07.606Z,70.60
2022-10-13T15:22:35.812Z,70.20
2022-10-13T15:25:07.732Z,70.30
2022-10-13T15:27:41.506Z,70.10
2022-10-13T15:30:15.803Z,70.50
2022-10-13T15:32:43.937Z,70.60
2022-10-13T15:35:12.044Z,71.10
2022-10-13T15:37:42.955Z,71.50
2022-10-13T15:40:12.279Z,71.80
2022-10-13T15:42:40.464Z,72.00
2022-10-13T15:45:11.122Z,72.40
2022-10-13T15:47:41.364Z,72.50
2022-10-13T15:50:11.686Z,72.60
2022-10-13T15:52:40.875Z,72.80
2022-10-13T15:55:11.014Z,72.90
2022-10-13T15:57:41.677Z,73.10
2022-10-13T16:00:13.607Z,73.10
2022-10-13T16:02:45.589Z,73.10
2022-10-13T16:05:14.443Z,73.30
2022-10-13T16:07:43.548Z,73.60
2022-10-13T16:10:13.245Z,74.00
2022-10-13T16:12:48.369Z,74.50
2022-10-13T16:15:20.588Z,74.70
2022-10-13T16:17:52.660Z,75.00
2022-10-13T16:20:21.132Z,75.00
2022-10-13T16:22:49.420Z,75.20
2022-10-13T16:25:17.820Z,75.60
2022-10-13T16:27:46.174Z,75.90
2022-10-13T16:30:14.464Z,76.10
2022-10-13T16:32:42.772Z,76.40
2022-10-13T16:35:12.297Z,76.50
2022-10-13T16:37:40.519Z,76.50
2022-10-13T16:40:09.626Z,77.10
2022-10-13T16:42:37.797Z,77.10
2022-10-13T16:45:07.436Z,77.10
2022-10-13T16:47:35.980Z,76.90
2022-10-13T16:50:09.430Z,77.30
2022-10-13T16:52:39.285Z,77.30
2022-10-13T16:55:08.718Z,77.30
2022-10-13T16:57:39.167Z,77.60
2022-10-13T17:00:08.660Z,77.80
2022-10-13T17:02:36.977Z,78.10
2022-10-13T17:05:05.546Z,78.20
2022-10-13T17:07:33.707Z,78.20
2022-10-13T17:10:04.166Z,78.50
2022-10-13T17:12:32.267Z,78.70
2022-10-13T17:15:00.455Z,78.80
2022-10-13T17:17:29.622Z,78.90
2022-10-13T17:19:57.787Z,79.10
2022-10-13T17:22:26.116Z,79.40
2022-10-13T17:24:54.291Z,79.80
2022-10-13T17:27:24.057Z,80.10
2022-10-13T17:29:53.918Z,80.20
2022-10-13T17:32:22.192Z,80.80
2022-10-13T17:34:53.705Z,81.30
2022-10-13T17:37:22.202Z,81.90
2022-10-13T17:39:50.778Z,82.00
2022-10-13T17:42:19.138Z,82.70
2022-10-13T17:44:51.051Z,83.10
2022-10-13T17:47:19.606Z,83.00
2022-10-13T17:49:48.671Z,83.60
2022-10-13T17:52:17.148Z,83.70
2022-10-13T17:54:45.834Z,84.50
2022-10-13T17:57:14.195Z,84.80
2022-10-13T17:59:42.389Z,85.00
2022-10-13T18:02:12.072Z,85.00
2022-10-13T18:04:40.242Z,85.00
2022-10-13T18:07:08.485Z,84.90
2022-10-13T18:09:36.648Z,85.10
2022-10-13T18:12:05.100Z,84.90
2022-10-13T18:14:33.381Z,85.10
2022-10-13T18:17:01.794Z,85.30
2022-10-13T18:19:31.279Z,85.60
2022-10-13T18:21:59.677Z,85.60
2022-10-13T18:24:28.037Z,85.90
2022-10-13T18:26:56.920Z,86.10
2022-10-13T18:29:25.238Z,86.00
2022-10-13T18:31:56.159Z,86.00
2022-10-13T18:34:24.758Z,86.50
2022-10-13T18:36:55.956Z,86.40
2022-10-13T18:39:26.073Z,86.20
2022-10-13T18:41:55.424Z,86.30
2022-10-13T18:44:25.037Z,86.30
2022-10-13T18:46:56.409Z,86.30
2022-10-13T18:49:30.919Z,86.50
2022-10-13T18:52:01.590Z,86.70
2022-10-13T18:54:30.843Z,86.70
2022-10-13T18:56:59.285Z,86.50
2022-10-13T18:59:27.498Z,86.90
2022-10-13T19:01:55.741Z,86.60
2022-10-13T19:04:26.240Z,86.50
2022-10-13T19:06:54.988Z,86.60
2022-10-13T19:09:25.529Z,86.50
2022-10-13T19:11:56.036Z,86.30
2022-10-13T19:14:25.779Z,86.40
2022-10-13T19:17:01.624Z,86.60
2022-10-13T19:19:31.201Z,86.90
2022-10-13T19:22:02.342Z,87.00
2022-10-13T19:24:32.363Z,87.20
2022-10-13T19:27:00.459Z,87.40
2022-10-13T19:29:30.415Z,87.50
2022-10-13T19:31:58.833Z,87.20
2022-10-13T19:34:27.202Z,87.50
2022-10-13T19:36:59.281Z,87.60
2022-10-13T19:39:28.276Z,87.90
2022-10-13T19:41:58.744Z,88.20
2022-10-13T19:44:26.942Z,88.50
2022-10-13T19:46:55.635Z,88.50
2022-10-13T19:49:26.235Z,88.90
2022-10-13T19:51:54.829Z,88.90
2022-10-13T19:54:23.739Z,89.50
2022-10-13T19:56:52.354Z,89.50
2022-10-13T19:59:22.103Z,89.70
2022-10-13T20:01:50.619Z,89.60
2022-10-13T20:04:20.478Z,89.50
2022-10-13T20:06:48.751Z,89.50
2022-10-13T20:09:17.626Z,89.40
2022-10-13T20:11:47.281Z,89.30
2022-10-13T20:14:16.053Z,89.50
2022-10-13T20:16:45.833Z,89.50
2022-10-13T20:19:16.531Z,89.40
2022-10-13T20:21:47.974Z,90.00
2022-10-13T20:24:16.172Z,90.50
2022-10-13T20:26:44.293Z,91.10
2022-10-13T20:29:12.645Z,91.90
2022-10-13T20:31:41.480Z,92.50
2022-10-13T20:34:12.162Z,93.00
2022-10-13T20:36:40.408Z,93.40
2022-10-13T20:39:09.157Z,93.80
2022-10-13T20:41:37.765Z,95.00
2022-10-13T20:44:06.068Z,94.70
2022-10-13T20:46:34.667Z,95.70
2022-10-13T20:49:11.085Z,95.50
2022-10-13T20:51:44.328Z,95.60
2022-10-13T20:54:13.588Z,96.10
2022-10-13T20:56:42.120Z,96.20
2022-10-13T20:59:12.912Z,96.10
2022-10-13T21:01:43.406Z,96.30
2022-10-13T21:04:12.247Z,96.10
2022-10-13T21:06:43.538Z,95.90
2022-10-13T21:09:12.118Z,95.50
2022-10-13T21:11:43.294Z,95.50
2022-10-13T21:14:14.020Z,96.00
2022-10-13T21:16:42.102Z,96.40
2022-10-13T21:19:10.365Z,96.90
2022-10-13T21:21:40.885Z,97.10
2022-10-13T21:24:11.676Z,97.20
2022-10-13T21:26:42.093Z,97.40
2022-10-13T21:29:14.712Z,97.90
2022-10-13T21:31:42.989Z,97.60
2022-10-13T21:34:12.359Z,97.60
2022-10-13T21:36:44.460Z,97.80
2022-10-13T21:39:16.958Z,98.40
2022-10-13T21:41:45.020Z,98.60
2022-10-13T21:44:14.720Z,98.50
2022-10-13T21:46:42.789Z,98.20
2022-10-13T21:49:11.034Z,98.00
2022-10-13T21:51:41.785Z,97.90
2022-10-13T21:54:11.976Z,98.00
2022-10-13T21:56:42.302Z,97.60
2022-10-13T21:59:13.277Z,97.50
2022-10-13T22:01:41.977Z,97.50
2022-10-13T22:04:14.845Z,97.50
2022-10-13T22:06:43.632Z,97.30
2022-10-13T22:09:12.085Z,97.00
2022-10-13T22:11:42.130Z,96.70
2022-10-13T22:14:13.499Z,96.40
2022-10-13T22:16:43.389Z,96.00
2022-10-13T22:19:12.208Z,95.60
2022-10-13T22:21:45.034Z,95.20
2022-10-13T22:24:15.629Z,95.00
2022-10-13T22:26:46.223Z,94.70
2022-10-13T22:29:16.630Z,94.40
2022-10-13T22:31:44.940Z,94.10
2022-10-13T22:34:15.963Z,93.90
2022-10-13T22:36:45.284Z,93.80
2022-10-13T22:39:14.587Z,93.70
2022-10-13T22:41:44.107Z,93.60
2022-10-13T22:44:12.659Z,93.80
2022-10-13T22:46:41.363Z,94.00
2022-10-13T22:49:14.666Z,94.30
2022-10-13T22:51:46.174Z,94.50
2022-10-13T22:54:16.342Z,94.60
2022-10-13T22:56:45.833Z,94.90
2022-10-13T22:59:14.281Z,94.90
2022-10-13T23:01:42.709Z,94.90
2022-10-13T23:04:13.113Z,94.80
2022-10-13T23:06:42.592Z,94.50
2022-10-13T23:09:13.873Z,94.40
2022-10-13T23:11:48.434Z,94.20
2022-10-13T23:14:27.564Z,94.10
2022-10-13T23:17:01.638Z,93.90
2022-10-13T23:19:34.885Z,93.90
2022-10-13T23:22:10.164Z,94.10
2022-10-13T23:24:43.194Z,94.10
2022-10-13T23:27:20.598Z,94.20
2022-10-13T23:29:57.280Z,94.40
2022-10-13T23:32:29.769Z,94.20
2022-10-13T23:35:01.108Z,94.10
2022-10-13T23:37:35.409Z,94.10
2022-10-13T23:40:05.371Z,94.00
2022-10-13T23:42:33.520Z,94.30
2022-10-13T23:45:05.926Z,94.20
2022-10-13T23:47:37.476Z,94.20
2022-10-13T23:50:06.501Z,94.90
2022-10-13T23:52:34.544Z,93.90
2022-10-13T23:55:02.718Z,93.60
2022-10-13T23:57:31.315Z,93.40
2022-10-13T23:59:59.395Z,93.30
